N825GB KL41-KPGA
Flight info
| Callsign | N825GB |
|---|---|
| Flight time | 0h 19m |
| Altitude | 7500 |
| Route | PGA |
| Aircraft | BE36/L-BDFGLORY/S |
Departure
| Time | 2026-05-04 20:14 |
|---|---|
| Airport | Marble Canyon Airport (KL41) |
Arrival
| Time | 2026-05-04 20:34 |
|---|---|
| Airport | Page Municipal Airport (KPGA) |
| Time | Latitude | Longitude | Altitude | Speed | Heading |
|---|---|---|---|---|---|
| 2026-05-04 19:59 | 36.81518 | -111.63871 | 3612 ft | 0 kts | 325° |
| 2026-05-04 20:07 | 36.81520 | -111.63872 | 3615 ft | 1 kts | 325° |
| 2026-05-04 20:07 | 36.81536 | -111.63894 | 3604 ft | 5 kts | 272° |
| 2026-05-04 20:07 | 36.81534 | -111.63900 | 3605 ft | 0 kts | 226° |
| 2026-05-04 20:11 | 36.81534 | -111.63901 | 3605 ft | 0 kts | 226° |
| 2026-05-04 20:11 | 36.81518 | -111.63918 | 3608 ft | 6 kts | 227° |
| 2026-05-04 20:11 | 36.81482 | -111.63982 | 3529 ft | 11 kts | 232° |
| 2026-05-04 20:11 | 36.81446 | -111.64037 | 3539 ft | 6 kts | 230° |
| 2026-05-04 20:12 | 36.81438 | -111.64047 | 3536 ft | 0 kts | 220° |
| 2026-05-04 20:12 | 36.81435 | -111.64050 | 3538 ft | 8 kts | 220° |
| 2026-05-04 20:12 | 36.81256 | -111.64251 | 3541 ft | 59 kts | 223° |
| 2026-05-04 20:12 | 36.80895 | -111.64674 | 3600 ft | 79 kts | 221° |
| 2026-05-04 20:13 | 36.80484 | -111.65115 | 3836 ft | 75 kts | 215° |
| 2026-05-04 20:13 | 36.80016 | -111.65487 | 4004 ft | 78 kts | 196° |
| 2026-05-04 20:13 | 36.79515 | -111.65159 | 4082 ft | 101 kts | 129° |
| 2026-05-04 20:13 | 36.79523 | -111.64231 | 4080 ft | 123 kts | 71° |
| 2026-05-04 20:14 | 36.80101 | -111.63366 | 4107 ft | 138 kts | 46° |
| 2026-05-04 20:14 | 36.80782 | -111.62470 | 4160 ft | 145 kts | 45° |
| 2026-05-04 20:14 | 36.81564 | -111.61741 | 4287 ft | 134 kts | 20° |
| 2026-05-04 20:14 | 36.82405 | -111.61715 | 4231 ft | 118 kts | 324° |
| 2026-05-04 20:15 | 36.82867 | -111.62417 | 4098 ft | 98 kts | 265° |
| 2026-05-04 20:15 | 36.82526 | -111.62974 | 3949 ft | 80 kts | 207° |
| 2026-05-04 20:15 | 36.82095 | -111.63323 | 3832 ft | 70 kts | 221° |
| 2026-05-04 20:15 | 36.81736 | -111.63713 | 3680 ft | 70 kts | 221° |
| 2026-05-04 20:16 | 36.81362 | -111.64134 | 3554 ft | 68 kts | 219° |
| 2026-05-04 20:16 | 36.81153 | -111.64368 | 3540 ft | 55 kts | 221° |
| 2026-05-04 20:16 | 36.80844 | -111.64725 | 3573 ft | 71 kts | 223° |
| 2026-05-04 20:16 | 36.80462 | -111.65132 | 3762 ft | 73 kts | 216° |
| 2026-05-04 20:17 | 36.80006 | -111.65291 | 4024 ft | 75 kts | 166° |
| 2026-05-04 20:17 | 36.79504 | -111.64486 | 4247 ft | 97 kts | 133° |
| 2026-05-04 20:17 | 36.79353 | -111.63613 | 4497 ft | 118 kts | 80° |
| 2026-05-04 20:17 | 36.79709 | -111.63067 | 4595 ft | 130 kts | 34° |
| 2026-05-04 20:18 | 36.80533 | -111.62504 | 4609 ft | 141 kts | 25° |
| 2026-05-04 20:18 | 36.81452 | -111.61895 | 4561 ft | 155 kts | 28° |
| 2026-05-04 20:18 | 36.82427 | -111.61340 | 4510 ft | 152 kts | 7° |
| 2026-05-04 20:18 | 36.83276 | -111.61627 | 4507 ft | 114 kts | 304° |
| 2026-05-04 20:19 | 36.83314 | -111.62385 | 4463 ft | 90 kts | 221° |
| 2026-05-04 20:19 | 36.82776 | -111.62799 | 4244 ft | 90 kts | 210° |
| 2026-05-04 20:19 | 36.82241 | -111.63178 | 4038 ft | 90 kts | 216° |
| 2026-05-04 20:19 | 36.81792 | -111.63657 | 3762 ft | 77 kts | 219° |
| 2026-05-04 20:20 | 36.81405 | -111.64085 | 3538 ft | 64 kts | 219° |
| 2026-05-04 20:20 | 36.81108 | -111.64421 | 3609 ft | 66 kts | 221° |
| 2026-05-04 20:20 | 36.80734 | -111.64869 | 3684 ft | 77 kts | 224° |
| 2026-05-04 20:20 | 36.80316 | -111.65312 | 3891 ft | 76 kts | 204° |
| 2026-05-04 20:21 | 36.79824 | -111.65141 | 4110 ft | 91 kts | 146° |
| 2026-05-04 20:21 | 36.79713 | -111.64264 | 4222 ft | 118 kts | 81° |
| 2026-05-04 20:21 | 36.80856 | -111.62402 | 4384 ft | 146 kts | 40° |
| 2026-05-04 20:22 | 36.81692 | -111.61649 | 4595 ft | 149 kts | 31° |
| 2026-05-04 20:22 | 36.82681 | -111.61326 | 4766 ft | 147 kts | 4° |
| 2026-05-04 20:22 | 36.83678 | -111.61124 | 4959 ft | 147 kts | 2° |
| 2026-05-04 20:22 | 36.84692 | -111.60962 | 5178 ft | 147 kts | 2° |
| 2026-05-04 20:23 | 36.85701 | -111.60819 | 5400 ft | 145 kts | 4° |
| 2026-05-04 20:23 | 36.86702 | -111.60679 | 5626 ft | 144 kts | 5° |
| 2026-05-04 20:23 | 36.87538 | -111.60061 | 5728 ft | 142 kts | 58° |
| 2026-05-04 20:23 | 36.87774 | -111.58890 | 5985 ft | 140 kts | 87° |
| 2026-05-04 20:24 | 36.87632 | -111.57709 | 6228 ft | 137 kts | 105° |
| 2026-05-04 20:24 | 36.87423 | -111.56543 | 6461 ft | 137 kts | 110° |
| 2026-05-04 20:24 | 36.87241 | -111.55379 | 6755 ft | 137 kts | 109° |
| 2026-05-04 20:24 | 36.87418 | -111.54214 | 6876 ft | 140 kts | 72° |
| 2026-05-04 20:25 | 36.87793 | -111.53075 | 7199 ft | 144 kts | 71° |
| 2026-05-04 20:25 | 36.88297 | -111.51923 | 7274 ft | 156 kts | 54° |
| 2026-05-04 20:25 | 36.89175 | -111.51035 | 7264 ft | 169 kts | 30° |
| 2026-05-04 20:25 | 36.90183 | -111.50204 | 7112 ft | 176 kts | 39° |
| 2026-05-04 20:26 | 36.91017 | -111.49071 | 6942 ft | 181 kts | 52° |
| 2026-05-04 20:26 | 36.91653 | -111.47659 | 6683 ft | 187 kts | 66° |
| 2026-05-04 20:26 | 36.92162 | -111.46180 | 6463 ft | 188 kts | 68° |
| 2026-05-04 20:26 | 36.92678 | -111.44609 | 6060 ft | 196 kts | 69° |
| 2026-05-04 20:27 | 36.93234 | -111.43193 | 6016 ft | 167 kts | 51° |
| 2026-05-04 20:27 | 36.94152 | -111.42537 | 5864 ft | 151 kts | 4° |
| 2026-05-04 20:27 | 36.95155 | -111.42613 | 5750 ft | 136 kts | 348° |
| 2026-05-04 20:27 | 36.95855 | -111.43179 | 5643 ft | 113 kts | 294° |
| 2026-05-04 20:28 | 36.95939 | -111.44075 | 5519 ft | 101 kts | 256° |
| 2026-05-04 20:28 | 36.95612 | -111.44835 | 5393 ft | 100 kts | 223° |
| 2026-05-04 20:28 | 36.94975 | -111.45233 | 5149 ft | 108 kts | 188° |
| 2026-05-04 20:28 | 36.94278 | -111.45167 | 4835 ft | 94 kts | 171° |
| 2026-05-04 20:29 | 36.93685 | -111.45040 | 4459 ft | 77 kts | 169° |
| 2026-05-04 20:29 | 36.93202 | -111.44938 | 4258 ft | 63 kts | 169° |
| 2026-05-04 20:29 | 36.92831 | -111.44858 | 4261 ft | 50 kts | 170° |
| 2026-05-04 20:29 | 36.92393 | -111.44758 | 4327 ft | 72 kts | 171° |
| 2026-05-04 20:30 | 36.91886 | -111.44635 | 4517 ft | 75 kts | 168° |
| 2026-05-04 20:30 | 36.91362 | -111.44425 | 4706 ft | 82 kts | 162° |
| 2026-05-04 20:30 | 36.90923 | -111.43905 | 4929 ft | 93 kts | 112° |
| 2026-05-04 20:30 | 36.90954 | -111.43050 | 5134 ft | 107 kts | 70° |
| 2026-05-04 20:31 | 36.91306 | -111.42187 | 5349 ft | 115 kts | 51° |
| 2026-05-04 20:31 | 36.91997 | -111.41758 | 5577 ft | 111 kts | 354° |
| 2026-05-04 20:31 | 36.92796 | -111.41897 | 5650 ft | 128 kts | 348° |
| 2026-05-04 20:31 | 36.93718 | -111.42073 | 5678 ft | 134 kts | 349° |
| 2026-05-04 20:32 | 36.94628 | -111.42240 | 5717 ft | 129 kts | 346° |
| 2026-05-04 20:32 | 36.95456 | -111.42549 | 5729 ft | 121 kts | 327° |
| 2026-05-04 20:32 | 36.95960 | -111.43340 | 5631 ft | 120 kts | 285° |
| 2026-05-04 20:32 | 36.96011 | -111.44361 | 5473 ft | 117 kts | 257° |
| 2026-05-04 20:33 | 36.95606 | -111.45171 | 5333 ft | 111 kts | 215° |
| 2026-05-04 20:33 | 36.94872 | -111.45332 | 5142 ft | 107 kts | 171° |
| 2026-05-04 20:33 | 36.94198 | -111.45142 | 4771 ft | 93 kts | 173° |
| 2026-05-04 20:33 | 36.93633 | -111.45026 | 4416 ft | 76 kts | 162° |
| 2026-05-04 20:34 | 36.93144 | -111.44923 | 4258 ft | 60 kts | 170° |
| 2026-05-04 20:34 | 36.92818 | -111.44856 | 4262 ft | 34 kts | 171° |
| 2026-05-04 20:34 | 36.92646 | -111.44820 | 4269 ft | 17 kts | 172° |
| 2026-05-04 20:34 | 36.92599 | -111.44856 | 4266 ft | 7 kts | 262° |
| 2026-05-04 20:35 | 36.92589 | -111.44927 | 4269 ft | 10 kts | 262° |
| 2026-05-04 20:35 | 36.92573 | -111.45011 | 4270 ft | 6 kts | 228° |
| 2026-05-04 20:35 | 36.92537 | -111.45011 | 4268 ft | 5 kts | 169° |
| 2026-05-04 20:35 | 36.92508 | -111.45006 | 4273 ft | 3 kts | 201° |
| 2026-05-04 20:36 | 36.92503 | -111.45042 | 4274 ft | 5 kts | 264° |
| 2026-05-04 20:36 | 36.92505 | -111.45069 | 4273 ft | 0 kts | 260° |